sensor_id;sensor_type;location;lat;lon;timestamp;P1;durP1;ratioP1;P2;durP2;ratioP2
32780;SDS011;19136;47.032;15.502;2023-08-17T00:02:00;19.77;;;14.23;;
32780;SDS011;19136;47.032;15.502;2023-08-17T00:04:25;19.17;;;13.85;;
32780;SDS011;19136;47.032;15.502;2023-08-17T00:06:54;19.55;;;13.15;;
32780;SDS011;19136;47.032;15.502;2023-08-17T00:09:20;26.83;;;13.93;;
32780;SDS011;19136;47.032;15.502;2023-08-17T00:11:45;26.15;;;14.82;;
32780;SDS011;19136;47.032;15.502;2023-08-17T00:14:11;18.67;;;14.38;;
32780;SDS011;19136;47.032;15.502;2023-08-17T00:16:38;22.73;;;14.98;;
32780;SDS011;19136;47.032;15.502;2023-08-17T00:19:03;24.00;;;14.02;;
32780;SDS011;19136;47.032;15.502;2023-08-17T00:21:29;28.38;;;12.57;;
32780;SDS011;19136;47.032;15.502;2023-08-17T00:23:55;26.52;;;14.32;;
32780;SDS011;19136;47.032;15.502;2023-08-17T00:26:21;26.58;;;15.75;;
32780;SDS011;19136;47.032;15.502;2023-08-17T00:28:47;15.18;;;13.27;;
32780;SDS011;19136;47.032;15.502;2023-08-17T00:31:14;23.02;;;13.32;;
32780;SDS011;19136;47.032;15.502;2023-08-17T00:33:39;18.40;;;13.45;;
32780;SDS011;19136;47.032;15.502;2023-08-17T00:36:07;20.40;;;12.77;;
32780;SDS011;19136;47.032;15.502;2023-08-17T00:38:33;24.02;;;13.52;;
32780;SDS011;19136;47.032;15.502;2023-08-17T00:41:00;22.13;;;13.73;;
32780;SDS011;19136;47.032;15.502;2023-08-17T00:43:26;18.25;;;12.15;;
32780;SDS011;19136;47.032;15.502;2023-08-17T00:45:55;26.85;;;12.18;;
32780;SDS011;19136;47.032;15.502;2023-08-17T00:48:21;23.05;;;13.20;;
32780;SDS011;19136;47.032;15.502;2023-08-17T00:50:47;17.00;;;12.52;;
32780;SDS011;19136;47.032;15.502;2023-08-17T00:53:14;21.23;;;13.45;;
32780;SDS011;19136;47.032;15.502;2023-08-17T00:55:42;22.85;;;13.68;;
32780;SDS011;19136;47.032;15.502;2023-08-17T00:58:07;21.65;;;13.85;;
32780;SDS011;19136;47.032;15.502;2023-08-17T01:00:33;25.98;;;14.38;;
32780;SDS011;19136;47.032;15.502;2023-08-17T01:02:59;19.77;;;13.02;;
32780;SDS011;19136;47.032;15.502;2023-08-17T01:05:25;20.90;;;14.23;;
32780;SDS011;19136;47.032;15.502;2023-08-17T01:07:51;24.10;;;13.68;;
32780;SDS011;19136;47.032;15.502;2023-08-17T01:10:16;25.05;;;15.07;;
32780;SDS011;19136;47.032;15.502;2023-08-17T01:12:44;18.38;;;12.63;;
32780;SDS011;19136;47.032;15.502;2023-08-17T01:15:14;37.38;;;13.35;;
32780;SDS011;19136;47.032;15.502;2023-08-17T01:20:12;20.15;;;12.73;;
32780;SDS011;19136;47.032;15.502;2023-08-17T01:22:42;19.08;;;13.45;;
32780;SDS011;19136;47.032;15.502;2023-08-17T01:25:09;23.35;;;13.57;;
32780;SDS011;19136;47.032;15.502;2023-08-17T01:27:42;23.10;;;13.07;;
32780;SDS011;19136;47.032;15.502;2023-08-17T01:30:09;23.48;;;13.35;;
32780;SDS011;19136;47.032;15.502;2023-08-17T01:32:40;22.35;;;14.13;;
32780;SDS011;19136;47.032;15.502;2023-08-17T01:35:16;22.98;;;13.25;;
32780;SDS011;19136;47.032;15.502;2023-08-17T01:37:44;28.13;;;14.85;;
32780;SDS011;19136;47.032;15.502;2023-08-17T01:40:09;20.63;;;14.05;;
32780;SDS011;19136;47.032;15.502;2023-08-17T01:42:36;21.45;;;14.65;;
32780;SDS011;19136;47.032;15.502;2023-08-17T01:45:02;20.80;;;14.65;;
32780;SDS011;19136;47.032;15.502;2023-08-17T01:47:29;20.05;;;13.23;;
32780;SDS011;19136;47.032;15.502;2023-08-17T01:49:55;23.73;;;15.73;;
32780;SDS011;19136;47.032;15.502;2023-08-17T01:52:26;21.85;;;14.85;;
32780;SDS011;19136;47.032;15.502;2023-08-17T01:54:52;30.98;;;15.48;;
32780;SDS011;19136;47.032;15.502;2023-08-17T01:57:18;26.15;;;16.30;;
32780;SDS011;19136;47.032;15.502;2023-08-17T01:59:43;21.33;;;15.52;;
32780;SDS011;19136;47.032;15.502;2023-08-17T02:02:11;26.30;;;15.30;;
32780;SDS011;19136;47.032;15.502;2023-08-17T02:04:39;23.85;;;14.57;;
32780;SDS011;19136;47.032;15.502;2023-08-17T02:07:06;24.20;;;16.17;;
32780;SDS011;19136;47.032;15.502;2023-08-17T02:09:32;20.65;;;13.35;;
32780;SDS011;19136;47.032;15.502;2023-08-17T02:11:58;21.02;;;14.27;;
32780;SDS011;19136;47.032;15.502;2023-08-17T02:14:23;30.23;;;13.85;;
32780;SDS011;19136;47.032;15.502;2023-08-17T02:16:49;21.92;;;14.77;;
32780;SDS011;19136;47.032;15.502;2023-08-17T02:19:14;21.55;;;13.55;;
32780;SDS011;19136;47.032;15.502;2023-08-17T02:21:41;21.42;;;13.45;;
32780;SDS011;19136;47.032;15.502;2023-08-17T02:24:07;16.30;;;12.75;;
32780;SDS011;19136;47.032;15.502;2023-08-17T02:26:33;19.77;;;12.90;;
32780;SDS011;19136;47.032;15.502;2023-08-17T02:28:58;20.88;;;13.05;;
32780;SDS011;19136;47.032;15.502;2023-08-17T02:31:24;19.00;;;13.45;;
32780;SDS011;19136;47.032;15.502;2023-08-17T02:33:49;20.60;;;12.63;;
32780;SDS011;19136;47.032;15.502;2023-08-17T02:36:15;20.77;;;14.68;;
32780;SDS011;19136;47.032;15.502;2023-08-17T02:38:40;23.13;;;15.15;;
32780;SDS011;19136;47.032;15.502;2023-08-17T02:41:06;25.65;;;15.68;;
32780;SDS011;19136;47.032;15.502;2023-08-17T02:43:32;13.45;;;11.60;;
32780;SDS011;19136;47.032;15.502;2023-08-17T02:46:00;17.52;;;12.43;;
32780;SDS011;19136;47.032;15.502;2023-08-17T02:48:26;20.35;;;12.73;;
32780;SDS011;19136;47.032;15.502;2023-08-17T02:50:51;18.73;;;14.02;;
32780;SDS011;19136;47.032;15.502;2023-08-17T02:53:17;20.15;;;15.02;;
32780;SDS011;19136;47.032;15.502;2023-08-17T02:55:42;22.60;;;14.43;;
32780;SDS011;19136;47.032;15.502;2023-08-17T02:58:08;22.48;;;14.00;;
32780;SDS011;19136;47.032;15.502;2023-08-17T03:00:34;21.55;;;14.82;;
32780;SDS011;19136;47.032;15.502;2023-08-17T03:03:00;25.23;;;15.48;;
32780;SDS011;19136;47.032;15.502;2023-08-17T03:05:25;22.85;;;13.82;;
32780;SDS011;19136;47.032;15.502;2023-08-17T03:07:51;18.40;;;13.15;;
32780;SDS011;19136;47.032;15.502;2023-08-17T03:10:17;19.30;;;13.10;;
32780;SDS011;19136;47.032;15.502;2023-08-17T03:12:44;17.95;;;12.75;;
32780;SDS011;19136;47.032;15.502;2023-08-17T03:15:10;24.60;;;15.20;;
32780;SDS011;19136;47.032;15.502;2023-08-17T03:17:35;21.35;;;13.55;;
32780;SDS011;19136;47.032;15.502;2023-08-17T03:20:01;20.70;;;14.13;;
32780;SDS011;19136;47.032;15.502;2023-08-17T03:22:28;20.40;;;14.98;;
32780;SDS011;19136;47.032;15.502;2023-08-17T03:24:56;19.10;;;12.30;;
32780;SDS011;19136;47.032;15.502;2023-08-17T03:27:22;16.23;;;12.15;;
32780;SDS011;19136;47.032;15.502;2023-08-17T03:29:48;15.30;;;12.35;;
32780;SDS011;19136;47.032;15.502;2023-08-17T03:32:14;17.90;;;12.68;;
32780;SDS011;19136;47.032;15.502;2023-08-17T03:34:40;25.77;;;13.52;;
32780;SDS011;19136;47.032;15.502;2023-08-17T03:37:07;19.42;;;13.52;;
32780;SDS011;19136;47.032;15.502;2023-08-17T03:39:32;21.08;;;14.52;;
32780;SDS011;19136;47.032;15.502;2023-08-17T03:41:58;23.45;;;15.88;;
32780;SDS011;19136;47.032;15.502;2023-08-17T03:44:23;15.65;;;13.40;;
32780;SDS011;19136;47.032;15.502;2023-08-17T03:46:48;15.00;;;12.48;;
32780;SDS011;19136;47.032;15.502;2023-08-17T03:49:14;17.85;;;12.48;;
32780;SDS011;19136;47.032;15.502;2023-08-17T03:51:40;19.10;;;12.95;;
32780;SDS011;19136;47.032;15.502;2023-08-17T03:54:05;19.90;;;13.02;;
32780;SDS011;19136;47.032;15.502;2023-08-17T03:56:31;22.15;;;13.48;;
32780;SDS011;19136;47.032;15.502;2023-08-17T03:58:56;17.05;;;13.02;;
32780;SDS011;19136;47.032;15.502;2023-08-17T04:01:22;19.30;;;12.98;;
32780;SDS011;19136;47.032;15.502;2023-08-17T04:03:48;22.08;;;13.90;;
32780;SDS011;19136;47.032;15.502;2023-08-17T04:06:14;21.98;;;13.32;;
32780;SDS011;19136;47.032;15.502;2023-08-17T04:08:41;20.65;;;14.95;;
32780;SDS011;19136;47.032;15.502;2023-08-17T04:11:07;18.35;;;12.82;;
32780;SDS011;19136;47.032;15.502;2023-08-17T04:13:32;15.93;;;12.65;;
32780;SDS011;19136;47.032;15.502;2023-08-17T04:15:58;18.92;;;12.38;;
32780;SDS011;19136;47.032;15.502;2023-08-17T04:18:24;19.70;;;10.88;;
32780;SDS011;19136;47.032;15.502;2023-08-17T04:20:49;20.05;;;12.07;;
32780;SDS011;19136;47.032;15.502;2023-08-17T04:23:15;22.73;;;13.05;;
32780;SDS011;19136;47.032;15.502;2023-08-17T04:25:46;20.13;;;12.98;;
32780;SDS011;19136;47.032;15.502;2023-08-17T04:28:12;26.45;;;12.23;;
32780;SDS011;19136;47.032;15.502;2023-08-17T04:30:39;17.77;;;12.77;;
32780;SDS011;19136;47.032;15.502;2023-08-17T04:33:05;21.25;;;13.45;;
32780;SDS011;19136;47.032;15.502;2023-08-17T04:35:30;21.23;;;12.40;;
32780;SDS011;19136;47.032;15.502;2023-08-17T04:37:56;13.85;;;12.35;;
32780;SDS011;19136;47.032;15.502;2023-08-17T04:40:21;20.08;;;11.93;;
32780;SDS011;19136;47.032;15.502;2023-08-17T04:42:48;17.48;;;12.38;;
32780;SDS011;19136;47.032;15.502;2023-08-17T04:45:13;17.35;;;13.88;;
32780;SDS011;19136;47.032;15.502;2023-08-17T04:47:42;20.25;;;14.02;;
32780;SDS011;19136;47.032;15.502;2023-08-17T04:50:08;16.15;;;12.52;;
32780;SDS011;19136;47.032;15.502;2023-08-17T04:52:34;20.38;;;12.55;;
32780;SDS011;19136;47.032;15.502;2023-08-17T04:55:01;16.38;;;12.32;;
32780;SDS011;19136;47.032;15.502;2023-08-17T04:57:28;22.67;;;14.63;;
32780;SDS011;19136;47.032;15.502;2023-08-17T04:59:54;18.20;;;12.77;;
32780;SDS011;19136;47.032;15.502;2023-08-17T05:02:20;20.08;;;12.20;;
32780;SDS011;19136;47.032;15.502;2023-08-17T05:04:46;17.70;;;13.40;;
32780;SDS011;19136;47.032;15.502;2023-08-17T05:07:15;17.63;;;13.10;;
32780;SDS011;19136;47.032;15.502;2023-08-17T05:09:40;19.98;;;12.98;;
32780;SDS011;19136;47.032;15.502;2023-08-17T05:12:07;25.23;;;14.82;;
32780;SDS011;19136;47.032;15.502;2023-08-17T05:14:32;14.57;;;11.90;;
32780;SDS011;19136;47.032;15.502;2023-08-17T05:16:58;16.65;;;12.50;;
32780;SDS011;19136;47.032;15.502;2023-08-17T05:19:23;20.85;;;13.65;;
32780;SDS011;19136;47.032;15.502;2023-08-17T05:21:49;22.83;;;12.18;;
32780;SDS011;19136;47.032;15.502;2023-08-17T05:24:16;16.92;;;12.55;;
32780;SDS011;19136;47.032;15.502;2023-08-17T05:26:43;13.68;;;11.00;;
32780;SDS011;19136;47.032;15.502;2023-08-17T05:29:08;18.83;;;10.77;;
32780;SDS011;19136;47.032;15.502;2023-08-17T05:31:34;27.42;;;17.58;;
32780;SDS011;19136;47.032;15.502;2023-08-17T05:34:00;20.73;;;12.02;;
32780;SDS011;19136;47.032;15.502;2023-08-17T05:36:25;15.02;;;11.50;;
32780;SDS011;19136;47.032;15.502;2023-08-17T05:38:51;17.15;;;11.15;;
32780;SDS011;19136;47.032;15.502;2023-08-17T05:41:16;17.17;;;10.80;;
32780;SDS011;19136;47.032;15.502;2023-08-17T05:43:43;19.23;;;10.43;;
32780;SDS011;19136;47.032;15.502;2023-08-17T05:46:08;16.85;;;11.05;;
32780;SDS011;19136;47.032;15.502;2023-08-17T05:48:34;21.88;;;10.95;;
32780;SDS011;19136;47.032;15.502;2023-08-17T05:51:00;15.65;;;11.38;;
32780;SDS011;19136;47.032;15.502;2023-08-17T05:53:25;12.52;;;10.98;;
32780;SDS011;19136;47.032;15.502;2023-08-17T05:55:51;16.77;;;10.77;;
32780;SDS011;19136;47.032;15.502;2023-08-17T05:58:16;23.52;;;10.20;;
32780;SDS011;19136;47.032;15.502;2023-08-17T06:00:42;14.07;;;10.05;;
32780;SDS011;19136;47.032;15.502;2023-08-17T06:03:07;16.77;;;10.65;;
32780;SDS011;19136;47.032;15.502;2023-08-17T06:05:33;18.40;;;11.38;;
32780;SDS011;19136;47.032;15.502;2023-08-17T06:07:58;20.83;;;11.85;;
32780;SDS011;19136;47.032;15.502;2023-08-17T06:10:24;17.52;;;12.60;;
32780;SDS011;19136;47.032;15.502;2023-08-17T06:12:53;18.73;;;11.60;;
32780;SDS011;19136;47.032;15.502;2023-08-17T06:15:19;16.20;;;12.25;;
32780;SDS011;19136;47.032;15.502;2023-08-17T06:17:45;21.80;;;12.77;;
32780;SDS011;19136;47.032;15.502;2023-08-17T06:20:11;16.30;;;12.63;;
32780;SDS011;19136;47.032;15.502;2023-08-17T06:22:37;18.27;;;13.68;;
32780;SDS011;19136;47.032;15.502;2023-08-17T06:25:03;18.58;;;13.30;;
32780;SDS011;19136;47.032;15.502;2023-08-17T06:27:30;18.52;;;12.43;;
32780;SDS011;19136;47.032;15.502;2023-08-17T06:29:55;23.10;;;14.52;;
32780;SDS011;19136;47.032;15.502;2023-08-17T06:32:21;20.40;;;14.45;;
32780;SDS011;19136;47.032;15.502;2023-08-17T06:34:46;20.13;;;13.15;;
32780;SDS011;19136;47.032;15.502;2023-08-17T06:37:12;17.63;;;12.85;;
32780;SDS011;19136;47.032;15.502;2023-08-17T06:39:37;19.52;;;13.80;;
32780;SDS011;19136;47.032;15.502;2023-08-17T06:42:03;17.70;;;12.13;;
32780;SDS011;19136;47.032;15.502;2023-08-17T06:44:29;18.10;;;12.90;;
32780;SDS011;19136;47.032;15.502;2023-08-17T06:46:56;19.17;;;12.20;;
32780;SDS011;19136;47.032;15.502;2023-08-17T06:49:21;19.48;;;12.43;;
32780;SDS011;19136;47.032;15.502;2023-08-17T06:51:47;15.27;;;11.02;;
32780;SDS011;19136;47.032;15.502;2023-08-17T06:54:13;16.40;;;10.77;;
32780;SDS011;19136;47.032;15.502;2023-08-17T06:56:39;14.45;;;10.05;;
32780;SDS011;19136;47.032;15.502;2023-08-17T06:59:04;14.68;;;10.95;;
32780;SDS011;19136;47.032;15.502;2023-08-17T07:01:30;14.68;;;9.95;;
32780;SDS011;19136;47.032;15.502;2023-08-17T07:03:56;13.38;;;9.10;;
32780;SDS011;19136;47.032;15.502;2023-08-17T07:06:22;17.73;;;9.98;;
32780;SDS011;19136;47.032;15.502;2023-08-17T07:08:48;11.30;;;9.05;;
32780;SDS011;19136;47.032;15.502;2023-08-17T07:11:14;12.25;;;9.05;;
32780;SDS011;19136;47.032;15.502;2023-08-17T07:13:39;13.20;;;8.40;;
32780;SDS011;19136;47.032;15.502;2023-08-17T07:16:05;10.77;;;8.43;;
32780;SDS011;19136;47.032;15.502;2023-08-17T07:18:30;12.00;;;7.63;;
32780;SDS011;19136;47.032;15.502;2023-08-17T07:20:56;12.88;;;8.07;;
32780;SDS011;19136;47.032;15.502;2023-08-17T07:23:21;10.57;;;7.43;;
32780;SDS011;19136;47.032;15.502;2023-08-17T07:25:47;12.07;;;7.05;;
32780;SDS011;19136;47.032;15.502;2023-08-17T07:28:13;11.90;;;6.68;;
32780;SDS011;19136;47.032;15.502;2023-08-17T07:30:40;11.73;;;7.20;;
32780;SDS011;19136;47.032;15.502;2023-08-17T07:33:05;11.95;;;6.97;;
32780;SDS011;19136;47.032;15.502;2023-08-17T07:35:31;9.18;;;5.80;;
32780;SDS011;19136;47.032;15.502;2023-08-17T07:37:56;8.07;;;6.45;;
32780;SDS011;19136;47.032;15.502;2023-08-17T07:40:22;8.13;;;5.85;;
32780;SDS011;19136;47.032;15.502;2023-08-17T07:42:47;8.48;;;6.10;;
32780;SDS011;19136;47.032;15.502;2023-08-17T07:45:13;9.98;;;5.72;;
32780;SDS011;19136;47.032;15.502;2023-08-17T07:47:39;11.50;;;5.78;;
32780;SDS011;19136;47.032;15.502;2023-08-17T07:50:05;6.47;;;5.78;;
32780;SDS011;19136;47.032;15.502;2023-08-17T07:52:31;11.38;;;6.18;;
32780;SDS011;19136;47.032;15.502;2023-08-17T07:54:56;8.43;;;5.30;;
32780;SDS011;19136;47.032;15.502;2023-08-17T07:57:21;9.73;;;6.25;;
32780;SDS011;19136;47.032;15.502;2023-08-17T07:59:47;10.68;;;6.00;;
32780;SDS011;19136;47.032;15.502;2023-08-17T08:02:13;9.57;;;6.00;;
32780;SDS011;19136;47.032;15.502;2023-08-17T08:04:38;10.77;;;6.10;;
32780;SDS011;19136;47.032;15.502;2023-08-17T08:07:04;7.47;;;6.03;;
32780;SDS011;19136;47.032;15.502;2023-08-17T08:09:29;9.45;;;6.20;;
32780;SDS011;19136;47.032;15.502;2023-08-17T08:11:55;9.63;;;5.30;;
32780;SDS011;19136;47.032;15.502;2023-08-17T08:14:20;7.65;;;5.35;;
32780;SDS011;19136;47.032;15.502;2023-08-17T08:16:46;9.23;;;5.05;;
32780;SDS011;19136;47.032;15.502;2023-08-17T08:19:12;7.88;;;5.10;;
32780;SDS011;19136;47.032;15.502;2023-08-17T08:21:38;7.47;;;5.30;;
32780;SDS011;19136;47.032;15.502;2023-08-17T08:24:03;9.15;;;5.30;;
32780;SDS011;19136;47.032;15.502;2023-08-17T08:26:29;9.48;;;5.70;;
32780;SDS011;19136;47.032;15.502;2023-08-17T08:28:54;8.68;;;5.35;;
32780;SDS011;19136;47.032;15.502;2023-08-17T08:31:20;11.80;;;5.65;;
32780;SDS011;19136;47.032;15.502;2023-08-17T08:33:45;7.13;;;5.32;;
32780;SDS011;19136;47.032;15.502;2023-08-17T08:36:10;6.43;;;5.70;;
32780;SDS011;19136;47.032;15.502;2023-08-17T08:38:36;9.10;;;6.13;;
32780;SDS011;19136;47.032;15.502;2023-08-17T08:41:02;7.47;;;5.03;;
32780;SDS011;19136;47.032;15.502;2023-08-17T08:43:28;10.05;;;6.15;;
32780;SDS011;19136;47.032;15.502;2023-08-17T08:45:54;12.48;;;5.65;;
32780;SDS011;19136;47.032;15.502;2023-08-17T08:48:26;7.37;;;5.70;;
32780;SDS011;19136;47.032;15.502;2023-08-17T08:50:51;10.15;;;5.30;;
32780;SDS011;19136;47.032;15.502;2023-08-17T08:53:20;6.38;;;5.38;;
32780;SDS011;19136;47.032;15.502;2023-08-17T08:55:57;8.20;;;4.80;;
32780;SDS011;19136;47.032;15.502;2023-08-17T08:58:23;10.40;;;4.97;;
32780;SDS011;19136;47.032;15.502;2023-08-17T09:00:50;8.90;;;5.60;;
32780;SDS011;19136;47.032;15.502;2023-08-17T09:03:15;8.40;;;4.88;;
32780;SDS011;19136;47.032;15.502;2023-08-17T09:05:44;5.93;;;5.30;;
32780;SDS011;19136;47.032;15.502;2023-08-17T09:08:11;7.85;;;5.60;;
32780;SDS011;19136;47.032;15.502;2023-08-17T09:10:37;7.70;;;5.82;;
32780;SDS011;19136;47.032;15.502;2023-08-17T09:13:03;7.22;;;5.50;;
32780;SDS011;19136;47.032;15.502;2023-08-17T09:15:28;9.00;;;5.68;;
32780;SDS011;19136;47.032;15.502;2023-08-17T09:17:54;5.75;;;5.05;;
32780;SDS011;19136;47.032;15.502;2023-08-17T09:20:38;6.05;;;5.03;;
32780;SDS011;19136;47.032;15.502;2023-08-17T09:23:05;6.20;;;5.07;;
32780;SDS011;19136;47.032;15.502;2023-08-17T09:25:34;8.65;;;5.63;;
32780;SDS011;19136;47.032;15.502;2023-08-17T09:28:02;7.80;;;5.28;;
32780;SDS011;19136;47.032;15.502;2023-08-17T09:33:17;7.22;;;5.45;;
32780;SDS011;19136;47.032;15.502;2023-08-17T09:35:43;10.55;;;5.10;;
32780;SDS011;19136;47.032;15.502;2023-08-17T09:38:09;8.52;;;5.60;;
32780;SDS011;19136;47.032;15.502;2023-08-17T09:40:34;10.48;;;5.82;;
32780;SDS011;19136;47.032;15.502;2023-08-17T09:43:01;13.02;;;7.60;;
32780;SDS011;19136;47.032;15.502;2023-08-17T09:45:27;8.52;;;5.43;;
32780;SDS011;19136;47.032;15.502;2023-08-17T09:47:52;11.40;;;5.43;;
32780;SDS011;19136;47.032;15.502;2023-08-17T09:50:21;8.10;;;5.38;;
32780;SDS011;19136;47.032;15.502;2023-08-17T09:52:46;8.43;;;5.30;;
32780;SDS011;19136;47.032;15.502;2023-08-17T09:55:12;8.20;;;5.43;;
32780;SDS011;19136;47.032;15.502;2023-08-17T09:57:37;8.48;;;5.22;;
32780;SDS011;19136;47.032;15.502;2023-08-17T10:00:04;9.57;;;5.35;;
32780;SDS011;19136;47.032;15.502;2023-08-17T10:02:31;6.53;;;4.88;;
32780;SDS011;19136;47.032;15.502;2023-08-17T10:04:57;8.50;;;5.38;;
32780;SDS011;19136;47.032;15.502;2023-08-17T10:07:26;11.35;;;5.68;;
32780;SDS011;19136;47.032;15.502;2023-08-17T10:09:58;7.45;;;5.07;;
32780;SDS011;19136;47.032;15.502;2023-08-17T10:12:27;13.13;;;6.07;;
32780;SDS011;19136;47.032;15.502;2023-08-17T10:14:59;10.40;;;5.25;;
32780;SDS011;19136;47.032;15.502;2023-08-17T10:17:26;9.68;;;4.97;;
32780;SDS011;19136;47.032;15.502;2023-08-17T10:19:54;7.30;;;5.22;;
32780;SDS011;19136;47.032;15.502;2023-08-17T10:22:56;6.63;;;5.50;;
32780;SDS011;19136;47.032;15.502;2023-08-17T10:25:11;9.68;;;5.40;;
32780;SDS011;19136;47.032;15.502;2023-08-17T10:27:39;7.25;;;4.95;;
32780;SDS011;19136;47.032;15.502;2023-08-17T10:30:06;7.22;;;5.03;;
32780;SDS011;19136;47.032;15.502;2023-08-17T10:32:32;6.50;;;4.82;;
32780;SDS011;19136;47.032;15.502;2023-08-17T10:34:57;7.20;;;5.35;;
32780;SDS011;19136;47.032;15.502;2023-08-17T10:37:23;10.52;;;5.18;;
32780;SDS011;19136;47.032;15.502;2023-08-17T10:39:50;6.70;;;5.55;;
32780;SDS011;19136;47.032;15.502;2023-08-17T10:42:15;8.55;;;5.40;;
32780;SDS011;19136;47.032;15.502;2023-08-17T10:44:58;9.23;;;5.38;;
32780;SDS011;19136;47.032;15.502;2023-08-17T10:54:52;9.32;;;5.78;;
32780;SDS011;19136;47.032;15.502;2023-08-17T11:00:13;9.00;;;6.13;;
32780;SDS011;19136;47.032;15.502;2023-08-17T11:02:42;7.60;;;6.00;;
32780;SDS011;19136;47.032;15.502;2023-08-17T11:05:08;8.95;;;5.88;;
32780;SDS011;19136;47.032;15.502;2023-08-17T11:07:43;9.82;;;5.80;;
32780;SDS011;19136;47.032;15.502;2023-08-17T11:12:43;9.65;;;5.80;;
32780;SDS011;19136;47.032;15.502;2023-08-17T11:15:09;9.40;;;5.57;;
32780;SDS011;19136;47.032;15.502;2023-08-17T11:17:35;6.22;;;5.30;;
32780;SDS011;19136;47.032;15.502;2023-08-17T11:20:00;8.20;;;5.85;;
32780;SDS011;19136;47.032;15.502;2023-08-17T11:22:27;6.28;;;4.97;;
32780;SDS011;19136;47.032;15.502;2023-08-17T11:24:53;7.57;;;5.43;;
32780;SDS011;19136;47.032;15.502;2023-08-17T11:27:18;10.55;;;5.47;;
32780;SDS011;19136;47.032;15.502;2023-08-17T11:29:45;13.75;;;5.95;;
32780;SDS011;19136;47.032;15.502;2023-08-17T11:32:10;8.43;;;5.03;;
32780;SDS011;19136;47.032;15.502;2023-08-17T11:34:37;10.70;;;4.93;;
32780;SDS011;19136;47.032;15.502;2023-08-17T11:37:02;7.68;;;4.95;;
32780;SDS011;19136;47.032;15.502;2023-08-17T11:39:32;6.43;;;5.00;;
32780;SDS011;19136;47.032;15.502;2023-08-17T11:41:57;10.38;;;5.28;;
32780;SDS011;19136;47.032;15.502;2023-08-17T11:44:24;6.10;;;4.95;;
32780;SDS011;19136;47.032;15.502;2023-08-17T11:46:49;5.28;;;4.47;;
32780;SDS011;19136;47.032;15.502;2023-08-17T11:49:16;7.70;;;4.70;;
32780;SDS011;19136;47.032;15.502;2023-08-17T11:51:42;8.02;;;4.60;;
32780;SDS011;19136;47.032;15.502;2023-08-17T11:54:07;10.25;;;4.97;;
32780;SDS011;19136;47.032;15.502;2023-08-17T11:56:33;6.65;;;5.88;;
32780;SDS011;19136;47.032;15.502;2023-08-17T11:58:59;10.23;;;6.20;;
32780;SDS011;19136;47.032;15.502;2023-08-17T12:01:33;8.07;;;4.90;;
32780;SDS011;19136;47.032;15.502;2023-08-17T12:04:00;6.82;;;4.60;;
32780;SDS011;19136;47.032;15.502;2023-08-17T12:06:25;5.03;;;4.18;;
32780;SDS011;19136;47.032;15.502;2023-08-17T12:08:51;7.68;;;4.70;;
32780;SDS011;19136;47.032;15.502;2023-08-17T12:11:17;8.20;;;4.55;;
32780;SDS011;19136;47.032;15.502;2023-08-17T12:13:48;7.85;;;4.20;;
32780;SDS011;19136;47.032;15.502;2023-08-17T12:16:15;7.07;;;4.75;;
32780;SDS011;19136;47.032;15.502;2023-08-17T12:18:41;7.82;;;4.20;;
32780;SDS011;19136;47.032;15.502;2023-08-17T12:21:08;6.32;;;4.18;;
32780;SDS011;19136;47.032;15.502;2023-08-17T12:23:34;8.30;;;4.80;;
32780;SDS011;19136;47.032;15.502;2023-08-17T12:25:59;7.82;;;4.25;;
32780;SDS011;19136;47.032;15.502;2023-08-17T12:28:25;5.85;;;4.32;;
32780;SDS011;19136;47.032;15.502;2023-08-17T12:30:57;6.40;;;4.20;;
32780;SDS011;19136;47.032;15.502;2023-08-17T12:33:23;6.53;;;4.30;;
32780;SDS011;19136;47.032;15.502;2023-08-17T12:35:48;4.78;;;4.10;;
32780;SDS011;19136;47.032;15.502;2023-08-17T12:38:14;5.85;;;4.40;;
32780;SDS011;19136;47.032;15.502;2023-08-17T12:40:39;8.35;;;4.20;;
32780;SDS011;19136;47.032;15.502;2023-08-17T12:43:05;4.80;;;4.28;;
32780;SDS011;19136;47.032;15.502;2023-08-17T12:45:30;9.63;;;3.95;;
32780;SDS011;19136;47.032;15.502;2023-08-17T12:47:56;8.00;;;4.20;;
32780;SDS011;19136;47.032;15.502;2023-08-17T12:50:21;4.30;;;3.90;;
32780;SDS011;19136;47.032;15.502;2023-08-17T12:52:47;9.73;;;4.93;;
32780;SDS011;19136;47.032;15.502;2023-08-17T12:55:12;9.68;;;4.90;;
32780;SDS011;19136;47.032;15.502;2023-08-17T12:57:38;11.32;;;8.05;;
32780;SDS011;19136;47.032;15.502;2023-08-17T13:00:03;6.28;;;4.45;;
32780;SDS011;19136;47.032;15.502;2023-08-17T13:02:29;7.72;;;3.72;;
32780;SDS011;19136;47.032;15.502;2023-08-17T13:04:54;7.07;;;3.92;;
32780;SDS011;19136;47.032;15.502;2023-08-17T13:07:20;7.25;;;3.70;;
32780;SDS011;19136;47.032;15.502;2023-08-17T13:09:45;8.20;;;3.80;;
32780;SDS011;19136;47.032;15.502;2023-08-17T13:12:12;10.85;;;3.88;;
32780;SDS011;19136;47.032;15.502;2023-08-17T13:14:37;6.13;;;3.85;;
32780;SDS011;19136;47.032;15.502;2023-08-17T13:17:02;7.10;;;4.07;;
32780;SDS011;19136;47.032;15.502;2023-08-17T13:19:28;3.97;;;3.58;;
32780;SDS011;19136;47.032;15.502;2023-08-17T13:21:54;6.93;;;4.07;;
32780;SDS011;19136;47.032;15.502;2023-08-17T13:24:19;4.75;;;3.55;;
32780;SDS011;19136;47.032;15.502;2023-08-17T13:26:44;3.92;;;3.35;;
32780;SDS011;19136;47.032;15.502;2023-08-17T13:29:10;5.10;;;3.80;;
32780;SDS011;19136;47.032;15.502;2023-08-17T13:31:36;10.68;;;3.53;;
32780;SDS011;19136;47.032;15.502;2023-08-17T13:34:01;4.40;;;3.97;;
32780;SDS011;19136;47.032;15.502;2023-08-17T13:36:26;5.50;;;3.60;;
32780;SDS011;19136;47.032;15.502;2023-08-17T13:38:53;6.90;;;3.95;;
32780;SDS011;19136;47.032;15.502;2023-08-17T13:41:18;8.02;;;4.35;;
32780;SDS011;19136;47.032;15.502;2023-08-17T13:43:44;12.40;;;3.80;;
32780;SDS011;19136;47.032;15.502;2023-08-17T13:46:09;5.15;;;4.50;;
32780;SDS011;19136;47.032;15.502;2023-08-17T13:48:35;12.00;;;3.78;;
32780;SDS011;19136;47.032;15.502;2023-08-17T13:51:00;7.28;;;3.55;;
32780;SDS011;19136;47.032;15.502;2023-08-17T13:53:26;6.38;;;4.28;;
32780;SDS011;19136;47.032;15.502;2023-08-17T13:55:51;8.80;;;4.00;;
32780;SDS011;19136;47.032;15.502;2023-08-17T13:58:17;5.03;;;3.90;;
32780;SDS011;19136;47.032;15.502;2023-08-17T14:00:42;4.05;;;3.60;;
32780;SDS011;19136;47.032;15.502;2023-08-17T14:03:08;4.75;;;3.47;;
32780;SDS011;19136;47.032;15.502;2023-08-17T14:05:34;6.47;;;3.50;;
32780;SDS011;19136;47.032;15.502;2023-08-17T14:08:00;6.18;;;3.35;;
32780;SDS011;19136;47.032;15.502;2023-08-17T14:10:25;5.35;;;3.67;;
32780;SDS011;19136;47.032;15.502;2023-08-17T14:12:51;7.53;;;3.95;;
32780;SDS011;19136;47.032;15.502;2023-08-17T14:15:16;4.40;;;3.40;;
32780;SDS011;19136;47.032;15.502;2023-08-17T14:17:42;5.03;;;3.42;;
32780;SDS011;19136;47.032;15.502;2023-08-17T14:20:07;7.53;;;4.15;;
32780;SDS011;19136;47.032;15.502;2023-08-17T14:22:33;6.38;;;3.90;;
32780;SDS011;19136;47.032;15.502;2023-08-17T14:24:59;7.30;;;4.00;;
32780;SDS011;19136;47.032;15.502;2023-08-17T14:27:24;6.35;;;3.88;;
32780;SDS011;19136;47.032;15.502;2023-08-17T14:29:50;7.32;;;4.07;;
32780;SDS011;19136;47.032;15.502;2023-08-17T14:32:15;4.85;;;3.72;;
32780;SDS011;19136;47.032;15.502;2023-08-17T14:34:41;8.68;;;4.00;;